createdAt,value
2023-09-16T00:00:42.042Z,47.56
2023-09-16T00:02:44.984Z,47.71
2023-09-16T00:04:48.218Z,46.96
2023-09-16T00:06:51.815Z,46.89
2023-09-16T00:08:54.581Z,46.55
2023-09-16T00:10:57.307Z,46.21
2023-09-16T00:13:02.261Z,45.95
2023-09-16T00:15:05.975Z,45.86
2023-09-16T00:17:10.379Z,47.26
2023-09-16T00:19:14.134Z,48.05
2023-09-16T00:21:17.513Z,48.13
2023-09-16T00:23:20.169Z,48.28
2023-09-16T00:25:22.917Z,48.27
2023-09-16T00:27:26.886Z,48.50
2023-09-16T00:29:29.611Z,48.74
2023-09-16T00:31:32.344Z,48.33
2023-09-16T00:33:35.234Z,47.81
2023-09-16T00:35:37.993Z,47.34
2023-09-16T00:37:40.843Z,47.35
2023-09-16T00:39:43.598Z,47.28
2023-09-16T00:41:46.286Z,47.50
2023-09-16T00:43:48.973Z,48.11
2023-09-16T00:45:51.733Z,48.99
2023-09-16T00:47:54.567Z,49.36
2023-09-16T00:49:58.652Z,49.79
2023-09-16T00:52:01.661Z,50.10
2023-09-16T00:54:04.459Z,50.46
2023-09-16T00:56:08.500Z,50.88
2023-09-16T00:58:12.692Z,51.34
2023-09-16T01:00:17.902Z,51.97
2023-09-16T01:02:21.220Z,52.82
2023-09-16T01:04:24.235Z,53.49
2023-09-16T01:06:27.444Z,53.70
2023-09-16T01:08:30.614Z,53.92
2023-09-16T01:10:34.037Z,53.92
2023-09-16T01:12:36.799Z,54.21
2023-09-16T01:14:39.600Z,54.75
2023-09-16T01:16:48.152Z,54.71
2023-09-16T01:18:55.556Z,54.81
2023-09-16T01:20:59.740Z,55.78
2023-09-16T01:23:02.550Z,55.64
2023-09-16T01:25:09.745Z,55.95
2023-09-16T01:27:12.458Z,56.17
2023-09-16T01:29:17.323Z,56.75
2023-09-16T01:31:20.149Z,57.11
2023-09-16T01:33:28.729Z,56.98
2023-09-16T01:35:36.925Z,57.22
2023-09-16T01:37:43.284Z,57.70
2023-09-16T01:39:54.886Z,57.92
2023-09-16T01:41:59.898Z,58.39
2023-09-16T01:44:04.352Z,58.00
2023-09-16T01:46:10.216Z,59.22
2023-09-16T01:48:13.167Z,59.14
2023-09-16T01:50:15.940Z,59.89
2023-09-16T01:52:18.696Z,60.06
2023-09-16T01:54:21.350Z,60.23
2023-09-16T01:56:24.095Z,60.33
2023-09-16T01:58:28.026Z,60.39
2023-09-16T02:00:30.736Z,60.64
2023-09-16T02:02:33.540Z,60.75
2023-09-16T02:04:37.796Z,62.40
2023-09-16T02:06:42.821Z,62.80
2023-09-16T02:08:47.939Z,63.27
2023-09-16T02:10:50.851Z,64.04
2023-09-16T02:12:53.943Z,64.36
2023-09-16T02:14:56.795Z,64.47
2023-09-16T02:16:59.686Z,63.99
2023-09-16T02:19:02.576Z,64.22
2023-09-16T02:21:05.477Z,63.95
2023-09-16T02:23:09.377Z,63.95
2023-09-16T02:25:12.068Z,63.57
2023-09-16T02:27:14.883Z,63.58
2023-09-16T02:29:17.563Z,63.72
2023-09-16T02:31:20.224Z,63.69
2023-09-16T02:33:22.925Z,63.88
2023-09-16T02:35:25.768Z,64.12
2023-09-16T02:37:28.394Z,63.83
2023-09-16T02:39:31.141Z,63.64
2023-09-16T02:41:33.806Z,64.03
2023-09-16T02:43:36.561Z,63.67
2023-09-16T02:45:42.587Z,63.82
2023-09-16T02:47:45.455Z,63.39
2023-09-16T02:49:48.550Z,62.98
2023-09-16T02:51:51.517Z,62.29
2023-09-16T02:53:57.192Z,61.93
2023-09-16T02:56:00.904Z,62.13
2023-09-16T02:58:04.483Z,62.15
2023-09-16T03:00:08.806Z,61.68
2023-09-16T03:02:11.551Z,61.86
2023-09-16T03:04:14.298Z,62.02
2023-09-16T03:06:17.094Z,61.60
2023-09-16T03:08:21.355Z,61.41
2023-09-16T03:10:24.103Z,61.50
2023-09-16T03:12:26.952Z,61.78
2023-09-16T03:14:31.498Z,61.58
2023-09-16T03:16:35.555Z,61.34
2023-09-16T03:18:38.360Z,61.52
2023-09-16T03:20:41.152Z,61.38
2023-09-16T03:22:43.827Z,61.55
2023-09-16T03:24:46.553Z,61.54
2023-09-16T03:26:49.661Z,61.11
2023-09-16T03:28:54.987Z,60.93
2023-09-16T03:30:57.703Z,60.95
2023-09-16T03:33:00.466Z,61.48
2023-09-16T03:35:03.207Z,61.55
2023-09-16T03:37:07.423Z,61.55
2023-09-16T03:39:10.133Z,62.60
2023-09-16T03:41:12.751Z,63.68
2023-09-16T03:43:15.887Z,64.03
2023-09-16T03:45:28.551Z,63.61
2023-09-16T03:47:32.654Z,63.63
2023-09-16T03:49:35.313Z,62.87
2023-09-16T03:51:39.223Z,62.86
2023-09-16T03:53:42.063Z,62.43
2023-09-16T03:55:45.163Z,62.90
2023-09-16T03:57:47.865Z,62.79
2023-09-16T03:59:50.707Z,62.58
2023-09-16T04:01:53.513Z,62.19
2023-09-16T04:03:56.541Z,61.86
2023-09-16T04:06:00.352Z,61.38
2023-09-16T04:08:03.199Z,62.19
2023-09-16T04:10:06.377Z,63.60
2023-09-16T04:12:09.369Z,64.19
2023-09-16T04:14:12.165Z,64.61
2023-09-16T04:16:15.336Z,64.30
2023-09-16T04:18:19.466Z,64.68
2023-09-16T04:20:22.141Z,64.91
2023-09-16T04:22:24.850Z,65.63
2023-09-16T04:24:27.676Z,66.20
2023-09-16T04:26:30.417Z,66.31
2023-09-16T04:28:33.226Z,66.74
2023-09-16T04:30:40.387Z,66.98
2023-09-16T04:32:43.318Z,67.17
2023-09-16T04:34:46.018Z,66.87
2023-09-16T04:36:50.356Z,66.53
2023-09-16T04:38:53.167Z,66.49
2023-09-16T04:40:55.803Z,66.02
2023-09-16T04:42:58.562Z,66.08
2023-09-16T04:45:05.419Z,65.66
2023-09-16T04:47:11.737Z,63.80
2023-09-16T04:49:14.595Z,63.21
2023-09-16T04:51:17.569Z,62.73
2023-09-16T04:53:20.230Z,63.01
2023-09-16T04:55:22.995Z,63.08
2023-09-16T04:57:27.077Z,63.03
2023-09-16T04:59:33.951Z,62.98
2023-09-16T05:01:36.802Z,63.76
2023-09-16T05:03:39.557Z,64.09
2023-09-16T05:05:42.347Z,64.01
2023-09-16T05:07:45.036Z,64.08
2023-09-16T05:09:47.733Z,64.94
2023-09-16T05:11:50.569Z,65.20
2023-09-16T05:13:54.195Z,64.51
2023-09-16T05:15:56.988Z,62.58
2023-09-16T05:17:59.942Z,61.77
2023-09-16T05:20:02.652Z,61.06
2023-09-16T05:22:06.721Z,59.53
2023-09-16T05:24:09.749Z,57.87
2023-09-16T05:26:14.430Z,56.71
2023-09-16T05:28:20.495Z,56.74
2023-09-16T05:30:23.333Z,60.14
2023-09-16T05:32:26.059Z,62.66
2023-09-16T05:34:28.906Z,63.07
2023-09-16T05:36:34.290Z,62.73
2023-09-16T05:38:36.901Z,62.01
2023-09-16T05:40:39.820Z,61.28
2023-09-16T05:42:42.550Z,61.73
2023-09-16T05:44:45.370Z,62.28
2023-09-16T05:46:48.827Z,62.46
2023-09-16T05:48:51.906Z,61.91
2023-09-16T05:50:59.506Z,61.89
2023-09-16T05:53:04.801Z,61.73
2023-09-16T05:55:07.998Z,60.65
2023-09-16T05:57:10.773Z,59.44
2023-09-16T05:59:15.403Z,58.55
2023-09-16T06:01:18.246Z,57.90
2023-09-16T06:03:21.189Z,57.10
2023-09-16T06:05:24.138Z,55.51
2023-09-16T06:07:27.306Z,54.37
2023-09-16T06:09:30.072Z,54.90
2023-09-16T06:11:32.803Z,55.52
2023-09-16T06:13:35.463Z,54.65
2023-09-16T06:15:38.281Z,57.29
2023-09-16T06:17:40.927Z,58.36
2023-09-16T06:19:43.568Z,58.22
2023-09-16T06:21:47.000Z,57.76
2023-09-16T06:23:49.768Z,56.64
2023-09-16T06:25:52.654Z,55.11
2023-09-16T06:27:56.231Z,54.29
2023-09-16T06:29:59.001Z,54.33
2023-09-16T06:32:11.864Z,55.51
2023-09-16T06:34:23.404Z,54.77
2023-09-16T06:36:27.656Z,54.16
2023-09-16T06:38:30.298Z,53.68
2023-09-16T06:40:33.066Z,53.44
2023-09-16T06:42:35.825Z,53.27
2023-09-16T06:44:38.511Z,53.50
2023-09-16T06:46:42.341Z,52.36
2023-09-16T06:48:46.801Z,52.59
2023-09-16T06:50:51.660Z,51.79
2023-09-16T06:52:54.280Z,51.54
2023-09-16T06:54:57.380Z,50.90
2023-09-16T06:57:01.493Z,52.17
2023-09-16T06:59:04.302Z,51.21
2023-09-16T07:01:14.181Z,51.66
2023-09-16T07:03:17.264Z,51.42
2023-09-16T07:05:20.088Z,51.49
2023-09-16T07:07:25.168Z,51.92
2023-09-16T07:09:27.898Z,49.23
2023-09-16T07:11:30.684Z,49.53
2023-09-16T07:13:33.330Z,50.53
2023-09-16T07:15:37.145Z,48.85
2023-09-16T07:17:40.110Z,49.18
2023-09-16T07:19:42.919Z,48.76
2023-09-16T07:21:45.681Z,49.23
2023-09-16T07:23:48.644Z,48.42
2023-09-16T07:25:58.776Z,47.03
2023-09-16T07:28:04.381Z,47.79
2023-09-16T07:30:07.754Z,47.11
2023-09-16T07:32:10.584Z,47.10
2023-09-16T07:34:13.326Z,47.19
2023-09-16T07:36:16.417Z,47.21
2023-09-16T07:38:19.193Z,47.09
2023-09-16T07:40:21.991Z,47.85
2023-09-16T07:42:24.883Z,48.00
2023-09-16T07:44:28.063Z,47.67
2023-09-16T07:46:30.896Z,46.93
2023-09-16T07:48:34.024Z,45.77
2023-09-16T07:50:39.949Z,46.14
2023-09-16T07:52:48.254Z,46.26
2023-09-16T07:55:05.850Z,44.65
2023-09-16T07:57:12.799Z,44.84
2023-09-16T07:59:23.778Z,44.20
2023-09-16T08:01:31.081Z,43.93
2023-09-16T08:03:34.702Z,44.11
2023-09-16T08:05:37.629Z,44.41
2023-09-16T08:07:40.344Z,43.66
2023-09-16T08:09:43.115Z,43.99
2023-09-16T08:11:45.909Z,45.72
2023-09-16T08:13:49.268Z,46.67
2023-09-16T08:15:52.082Z,45.80
2023-09-16T08:17:55.877Z,45.65
2023-09-16T08:19:58.571Z,45.95
2023-09-16T08:22:01.392Z,45.00
2023-09-16T08:24:04.343Z,43.41
2023-09-16T08:26:07.100Z,42.68
2023-09-16T08:28:11.161Z,43.45
2023-09-16T08:30:14.091Z,44.50
2023-09-16T08:32:17.396Z,43.70
2023-09-16T08:34:20.320Z,41.83
2023-09-16T08:36:23.996Z,41.33
2023-09-16T08:38:26.889Z,43.43
2023-09-16T08:40:33.819Z,42.63
2023-09-16T08:42:43.350Z,41.53
2023-09-16T08:44:52.648Z,41.04
2023-09-16T08:47:16.789Z,41.41
2023-09-16T08:49:21.290Z,41.72
2023-09-16T08:51:26.158Z,39.55
2023-09-16T08:53:31.934Z,39.39
2023-09-16T08:55:37.894Z,40.30
2023-09-16T08:57:46.893Z,37.16
2023-09-16T08:59:52.021Z,39.90
2023-09-16T09:01:54.925Z,39.35
2023-09-16T09:04:00.049Z,40.46
2023-09-16T09:06:05.127Z,39.22
2023-09-16T09:08:12.011Z,38.79
2023-09-16T09:10:14.953Z,40.00
2023-09-16T09:12:18.114Z,38.75
2023-09-16T09:14:23.484Z,38.00
2023-09-16T09:16:28.330Z,38.23
2023-09-16T09:18:34.650Z,39.32
2023-09-16T09:20:38.439Z,37.65
2023-09-16T09:22:41.991Z,36.78
2023-09-16T09:24:44.853Z,37.08
2023-09-16T09:26:47.620Z,37.25
2023-09-16T09:28:50.736Z,38.88
2023-09-16T09:30:54.129Z,38.39
2023-09-16T09:32:58.036Z,37.96
2023-09-16T09:35:10.234Z,38.49
2023-09-16T09:37:17.931Z,38.66
2023-09-16T09:39:21.118Z,37.46
2023-09-16T09:41:23.850Z,39.12
2023-09-16T09:43:30.523Z,36.52
2023-09-16T09:45:42.840Z,36.67
2023-09-16T09:47:47.029Z,35.88
2023-09-16T09:49:50.022Z,36.48
2023-09-16T09:51:52.938Z,35.64
2023-09-16T09:53:55.929Z,35.97
2023-09-16T09:55:58.855Z,35.57
2023-09-16T09:58:02.076Z,34.45
2023-09-16T10:00:06.422Z,32.99
2023-09-16T10:02:10.203Z,33.78
2023-09-16T10:04:13.972Z,34.18
2023-09-16T10:06:18.589Z,34.82
2023-09-16T10:08:22.798Z,34.38
2023-09-16T10:10:26.789Z,34.31
2023-09-16T10:12:30.687Z,34.91
2023-09-16T10:14:34.878Z,35.14
2023-09-16T10:16:39.045Z,34.64
2023-09-16T10:18:42.771Z,34.70
2023-09-16T10:20:45.522Z,34.76
2023-09-16T10:22:48.514Z,34.45
2023-09-16T10:24:51.394Z,33.70
2023-09-16T10:26:56.412Z,34.05
2023-09-16T10:29:01.210Z,33.71
2023-09-16T10:31:04.641Z,33.50
2023-09-16T10:33:12.500Z,34.16
2023-09-16T10:35:15.654Z,34.76
2023-09-16T10:37:21.427Z,34.05
2023-09-16T10:39:25.227Z,33.82
2023-09-16T10:41:28.646Z,32.96
2023-09-16T10:43:33.908Z,32.49
2023-09-16T10:45:38.995Z,32.84
2023-09-16T10:47:42.927Z,32.66
2023-09-16T10:49:46.600Z,33.54
2023-09-16T10:51:52.599Z,33.37
2023-09-16T10:54:11.594Z,32.95
2023-09-16T10:56:31.015Z,33.54
2023-09-16T10:58:37.155Z,32.04
2023-09-16T11:00:55.384Z,31.20
2023-09-16T11:03:01.396Z,31.85
2023-09-16T11:05:06.541Z,31.16
2023-09-16T11:07:12.252Z,31.60
2023-09-16T11:09:16.936Z,30.89
2023-09-16T11:11:23.621Z,30.66
2023-09-16T11:13:29.555Z,31.01
2023-09-16T11:15:34.855Z,30.90
2023-09-16T11:17:42.377Z,30.20
2023-09-16T11:19:47.224Z,31.02
2023-09-16T11:21:50.583Z,30.08
2023-09-16T11:23:53.833Z,30.03
2023-09-16T11:25:59.152Z,30.22
2023-09-16T11:28:09.026Z,29.89
2023-09-16T11:30:15.410Z,30.13
2023-09-16T11:32:24.144Z,29.36
2023-09-16T11:34:30.834Z,29.53
2023-09-16T11:36:38.059Z,28.99
2023-09-16T11:38:59.545Z,29.11
2023-09-16T11:41:14.090Z,29.32
2023-09-16T11:43:18.681Z,29.49
2023-09-16T11:45:23.529Z,28.98
2023-09-16T11:47:34.766Z,29.08
2023-09-16T11:49:37.945Z,29.97
2023-09-16T11:51:41.113Z,28.85
2023-09-16T11:53:46.755Z,28.89
2023-09-16T11:55:51.605Z,27.56
2023-09-16T11:57:55.363Z,27.55
2023-09-16T11:59:59.587Z,27.67
2023-09-16T12:02:04.153Z,27.34
2023-09-16T12:04:12.817Z,27.12
2023-09-16T12:06:18.914Z,27.33
2023-09-16T12:08:23.529Z,26.89
2023-09-16T12:10:26.952Z,27.31
2023-09-16T12:12:31.177Z,26.59
2023-09-16T12:14:35.713Z,26.45
2023-09-16T12:16:39.957Z,26.82
2023-09-16T12:18:44.751Z,26.81
2023-09-16T12:20:48.985Z,26.72
2023-09-16T12:22:55.504Z,26.82
2023-09-16T12:24:58.694Z,27.09
2023-09-16T12:27:02.426Z,26.56
2023-09-16T12:29:06.779Z,26.29
2023-09-16T12:31:14.517Z,26.81
2023-09-16T12:33:17.775Z,26.33
2023-09-16T12:35:21.699Z,26.01
2023-09-16T12:37:26.647Z,25.71
2023-09-16T12:39:40.707Z,25.74
2023-09-16T12:41:54.493Z,25.94
2023-09-16T12:44:03.362Z,25.96
2023-09-16T12:46:09.636Z,25.83
2023-09-16T12:48:13.905Z,25.76
2023-09-16T12:50:18.002Z,26.21
2023-09-16T12:52:21.634Z,26.04
2023-09-16T12:54:27.120Z,25.41
2023-09-16T12:56:31.810Z,25.55
2023-09-16T12:58:40.859Z,25.00
2023-09-16T13:00:44.519Z,25.42
2023-09-16T13:02:47.989Z,25.51
2023-09-16T13:04:51.347Z,25.26
2023-09-16T13:06:54.700Z,23.92
2023-09-16T13:08:57.845Z,24.21
2023-09-16T13:11:03.010Z,23.81
2023-09-16T13:13:06.279Z,23.90
2023-09-16T13:15:15.241Z,23.97
2023-09-16T13:17:18.829Z,23.78
2023-09-16T13:19:25.929Z,23.55
2023-09-16T13:21:33.477Z,24.44
2023-09-16T13:23:36.458Z,24.18
2023-09-16T13:25:43.068Z,23.87
2023-09-16T13:27:54.305Z,23.20
2023-09-16T13:30:01.766Z,22.87
2023-09-16T13:32:07.863Z,23.23
2023-09-16T13:34:11.342Z,23.94
2023-09-16T13:36:15.386Z,23.72
2023-09-16T13:38:18.370Z,24.29
2023-09-16T13:40:25.020Z,24.84
2023-09-16T13:42:28.379Z,24.80
2023-09-16T13:44:31.320Z,25.26
2023-09-16T13:46:35.997Z,25.12
2023-09-16T13:48:49.865Z,25.12
2023-09-16T13:50:53.874Z,25.36
2023-09-16T13:52:57.045Z,25.39
2023-09-16T13:55:00.213Z,25.61
2023-09-16T13:57:04.914Z,25.64
2023-09-16T13:59:08.054Z,25.47
2023-09-16T14:01:12.534Z,25.87
2023-09-16T14:03:19.387Z,25.98
2023-09-16T14:05:22.767Z,25.82
2023-09-16T14:07:25.976Z,26.24
2023-09-16T14:09:29.139Z,26.25
2023-09-16T14:11:32.393Z,26.22
2023-09-16T14:13:35.966Z,26.57
2023-09-16T14:15:42.751Z,26.30
2023-09-16T14:17:45.823Z,26.88
2023-09-16T14:19:49.003Z,26.94
2023-09-16T14:21:52.990Z,27.08
2023-09-16T14:23:56.002Z,27.41
2023-09-16T14:26:02.535Z,27.46
2023-09-16T14:28:08.795Z,27.28
2023-09-16T14:30:12.583Z,27.55
2023-09-16T14:32:15.648Z,27.57
2023-09-16T14:34:18.734Z,27.83
2023-09-16T14:36:22.735Z,27.98
2023-09-16T14:38:26.287Z,28.53
2023-09-16T14:40:31.106Z,28.83
2023-09-16T14:42:34.586Z,29.03
2023-09-16T14:44:38.083Z,29.40
2023-09-16T14:46:40.984Z,29.83
2023-09-16T14:48:43.964Z,30.17
2023-09-16T14:50:52.949Z,30.53
2023-09-16T14:52:55.913Z,30.72
2023-09-16T14:55:00.008Z,31.53
2023-09-16T14:57:04.341Z,31.13
2023-09-16T14:59:07.291Z,31.42
2023-09-16T15:01:10.604Z,31.86
2023-09-16T15:03:13.902Z,31.83
2023-09-16T15:05:17.105Z,32.01
2023-09-16T15:07:22.390Z,32.29
2023-09-16T15:09:25.573Z,32.08
2023-09-16T15:11:31.745Z,32.17
2023-09-16T15:13:34.753Z,32.15
2023-09-16T15:15:37.734Z,31.97
2023-09-16T15:17:40.664Z,32.04
2023-09-16T15:19:45.187Z,31.97
2023-09-16T15:21:48.227Z,32.00
2023-09-16T15:23:51.445Z,31.96
2023-09-16T15:25:54.337Z,32.08
2023-09-16T15:27:57.333Z,32.00
2023-09-16T15:30:00.326Z,31.89
2023-09-16T15:34:09.142Z,32.04
2023-09-16T15:36:12.662Z,32.05
2023-09-16T15:38:15.739Z,32.07
2023-09-16T15:40:18.871Z,32.21
2023-09-16T15:42:22.917Z,32.15
2023-09-16T15:44:26.137Z,32.02
2023-09-16T15:46:28.944Z,32.51
2023-09-16T15:48:32.091Z,32.66
2023-09-16T15:50:48.675Z,33.80
2023-09-16T15:52:51.973Z,34.82
2023-09-16T15:54:55.005Z,35.09
2023-09-16T15:56:57.951Z,35.52
2023-09-16T15:59:01.770Z,36.42
2023-09-16T16:01:05.067Z,36.89
2023-09-16T16:03:08.475Z,37.85
2023-09-16T16:05:12.142Z,38.30
2023-09-16T16:07:17.143Z,38.88
2023-09-16T16:09:19.999Z,39.36
2023-09-16T16:11:22.968Z,39.74
2023-09-16T16:13:25.935Z,39.85
2023-09-16T16:15:28.904Z,40.48
2023-09-16T16:17:31.818Z,40.58
2023-09-16T16:19:34.890Z,40.85
2023-09-16T16:21:38.423Z,41.28
2023-09-16T16:23:41.471Z,41.83
2023-09-16T16:25:47.608Z,42.14
2023-09-16T16:27:51.748Z,42.48
2023-09-16T16:29:54.634Z,42.81
2023-09-16T16:31:57.607Z,43.51
2023-09-16T16:34:00.609Z,43.91
2023-09-16T16:36:08.110Z,44.06
2023-09-16T16:38:11.189Z,44.56
2023-09-16T16:40:18.974Z,44.82
2023-09-16T16:42:22.312Z,45.01
2023-09-16T16:44:28.325Z,45.00
2023-09-16T16:46:33.352Z,45.36
2023-09-16T16:48:36.213Z,45.55
2023-09-16T16:50:39.003Z,45.87
2023-09-16T16:52:41.872Z,45.88
2023-09-16T16:54:44.830Z,46.02
2023-09-16T16:56:47.760Z,46.44
2023-09-16T16:58:54.815Z,46.36
2023-09-16T17:00:58.522Z,46.38
2023-09-16T17:03:01.439Z,46.63
2023-09-16T17:05:06.169Z,46.69
2023-09-16T17:07:09.593Z,46.93
2023-09-16T17:09:15.360Z,46.92
2023-09-16T17:11:19.999Z,47.21
2023-09-16T17:13:22.940Z,47.23
2023-09-16T17:15:26.519Z,47.31
2023-09-16T17:17:30.158Z,47.64
2023-09-16T17:20:05.714Z,47.77
2023-09-16T17:22:08.811Z,47.78
2023-09-16T17:24:11.761Z,47.66
2023-09-16T17:26:14.766Z,47.72
2023-09-16T17:28:26.068Z,47.76
2023-09-16T17:30:29.251Z,47.93
2023-09-16T17:32:32.318Z,47.66
2023-09-16T17:34:35.073Z,47.75
2023-09-16T17:36:38.155Z,48.03
2023-09-16T17:38:40.970Z,47.92
2023-09-16T17:40:43.668Z,47.98
2023-09-16T17:42:46.499Z,48.15
2023-09-16T17:44:49.336Z,48.21
2023-09-16T17:46:52.370Z,48.31
2023-09-16T17:48:55.213Z,48.42
2023-09-16T17:50:59.091Z,48.43
2023-09-16T17:53:03.013Z,48.49
2023-09-16T17:55:06.342Z,48.61
2023-09-16T17:57:09.023Z,48.85
2023-09-16T17:59:13.287Z,48.48
2023-09-16T18:01:16.344Z,48.56
2023-09-16T18:03:19.576Z,48.67
2023-09-16T18:05:22.723Z,48.69
2023-09-16T18:07:27.961Z,48.72
2023-09-16T18:09:31.437Z,48.41
2023-09-16T18:11:34.209Z,48.38
2023-09-16T18:13:37.046Z,48.27
2023-09-16T18:15:39.784Z,48.07
2023-09-16T18:17:42.585Z,48.57
2023-09-16T18:19:45.574Z,48.32
2023-09-16T18:21:48.440Z,48.42
2023-09-16T18:23:52.346Z,48.45
2023-09-16T18:25:55.084Z,48.60
2023-09-16T18:27:57.935Z,48.77
2023-09-16T18:30:00.826Z,48.67
2023-09-16T18:32:05.178Z,48.92
2023-09-16T18:34:08.011Z,49.07
2023-09-16T18:36:12.071Z,49.43
2023-09-16T18:38:21.277Z,49.31
2023-09-16T18:40:24.518Z,49.62
2023-09-16T18:42:28.490Z,49.90
2023-09-16T18:44:31.669Z,50.22
2023-09-16T18:46:34.722Z,50.45
2023-09-16T18:48:37.783Z,50.54
2023-09-16T18:50:42.829Z,51.06
2023-09-16T18:52:46.139Z,51.34
2023-09-16T18:54:49.036Z,51.50
2023-09-16T18:56:51.709Z,51.65
2023-09-16T18:58:54.346Z,51.85
2023-09-16T19:00:57.828Z,51.98
2023-09-16T19:03:00.780Z,52.04
2023-09-16T19:05:04.543Z,52.18
2023-09-16T19:07:08.267Z,52.23
2023-09-16T19:09:13.366Z,52.46
2023-09-16T19:11:23.552Z,52.55
2023-09-16T19:13:26.618Z,52.94
2023-09-16T19:15:30.637Z,53.35
2023-09-16T19:17:33.355Z,53.34
2023-09-16T19:19:36.986Z,53.90
2023-09-16T19:21:39.748Z,53.93
2023-09-16T19:23:43.101Z,54.06
2023-09-16T19:25:50.993Z,54.70
2023-09-16T19:27:54.113Z,54.88
2023-09-16T19:30:01.760Z,54.78
2023-09-16T19:32:11.703Z,55.28
2023-09-16T19:34:17.532Z,55.27
2023-09-16T19:36:21.130Z,56.00
2023-09-16T19:38:25.046Z,56.02
2023-09-16T19:40:28.147Z,56.14
2023-09-16T19:42:34.102Z,56.37
2023-09-16T19:44:37.435Z,56.69
2023-09-16T19:46:54.665Z,57.05
2023-09-16T19:48:59.288Z,57.23
2023-09-16T19:51:05.414Z,57.74
2023-09-16T19:53:08.260Z,57.45
2023-09-16T19:55:11.142Z,57.83
2023-09-16T19:57:14.370Z,58.37
2023-09-16T19:59:17.087Z,58.59
2023-09-16T20:01:19.911Z,59.03
2023-09-16T20:03:22.705Z,59.34
2023-09-16T20:05:26.677Z,59.91
2023-09-16T20:07:29.381Z,60.12
2023-09-16T20:09:32.045Z,60.57
2023-09-16T20:11:34.658Z,60.51
2023-09-16T20:13:38.528Z,60.75
2023-09-16T20:15:41.297Z,60.66
2023-09-16T20:17:44.077Z,60.98
2023-09-16T20:19:54.300Z,61.01
2023-09-16T20:21:57.430Z,61.05
2023-09-16T20:24:00.129Z,61.27
2023-09-16T20:26:02.991Z,61.35
2023-09-16T20:28:05.905Z,61.09
2023-09-16T20:30:08.963Z,61.76
2023-09-16T20:32:12.592Z,61.98
2023-09-16T20:34:15.405Z,61.93
2023-09-16T20:36:18.644Z,62.08
2023-09-16T20:38:21.315Z,62.59
2023-09-16T20:40:23.985Z,62.78
2023-09-16T20:42:28.988Z,62.88
2023-09-16T20:44:31.702Z,62.99
2023-09-16T20:46:34.696Z,63.30
2023-09-16T20:48:37.811Z,63.55
2023-09-16T20:50:41.990Z,64.10
2023-09-16T20:52:44.725Z,63.79
2023-09-16T20:54:47.457Z,64.15
2023-09-16T20:56:50.263Z,64.00
2023-09-16T20:58:53.583Z,64.26
2023-09-16T21:00:56.411Z,64.31
2023-09-16T21:02:59.175Z,64.37
2023-09-16T21:05:02.036Z,64.52
2023-09-16T21:07:07.760Z,65.07
2023-09-16T21:09:11.133Z,65.61
2023-09-16T21:11:14.004Z,66.18
2023-09-16T21:13:16.831Z,66.12
2023-09-16T21:15:19.623Z,66.70
2023-09-16T21:17:22.488Z,67.06
2023-09-16T21:19:26.787Z,67.17
2023-09-16T21:21:29.516Z,67.61
2023-09-16T21:23:32.516Z,67.68
2023-09-16T21:25:35.722Z,67.74
2023-09-16T21:27:38.440Z,67.84
2023-09-16T21:29:41.174Z,67.80
2023-09-16T21:31:55.219Z,67.61
2023-09-16T21:34:02.749Z,68.20
2023-09-16T21:36:05.655Z,68.45
2023-09-16T21:38:08.383Z,68.14
2023-09-16T21:40:11.552Z,68.88
2023-09-16T21:42:16.720Z,68.92
2023-09-16T21:44:19.749Z,69.24
2023-09-16T21:46:22.558Z,69.40
2023-09-16T21:48:25.421Z,69.53
2023-09-16T21:50:28.106Z,69.67
2023-09-16T21:52:31.259Z,70.15
2023-09-16T21:54:33.974Z,70.50
2023-09-16T21:56:36.813Z,70.55
2023-09-16T21:58:39.651Z,70.54
2023-09-16T22:00:42.412Z,70.59
2023-09-16T22:02:45.176Z,70.95
2023-09-16T22:04:47.977Z,70.94
2023-09-16T22:06:50.666Z,71.21
2023-09-16T22:08:53.398Z,71.67
2023-09-16T22:10:59.299Z,71.58
2023-09-16T22:13:02.879Z,72.13
2023-09-16T22:15:05.876Z,72.42
2023-09-16T22:17:09.293Z,72.56
2023-09-16T22:19:13.105Z,72.63
2023-09-16T22:21:16.405Z,72.30
2023-09-16T22:23:19.428Z,73.37
2023-09-16T22:25:22.995Z,73.09
2023-09-16T22:27:26.592Z,73.54
2023-09-16T22:29:29.314Z,73.99
2023-09-16T22:31:32.303Z,74.39
2023-09-16T22:33:36.567Z,74.59
2023-09-16T22:35:42.118Z,74.56
2023-09-16T22:37:45.096Z,74.60
2023-09-16T22:39:56.689Z,74.92
2023-09-16T22:42:00.210Z,75.42
2023-09-16T22:44:02.937Z,75.33
2023-09-16T22:46:05.816Z,75.64
2023-09-16T22:48:09.316Z,76.19
2023-09-16T22:50:12.037Z,76.09
2023-09-16T22:52:14.628Z,76.41
2023-09-16T22:54:17.297Z,76.85
2023-09-16T22:56:19.976Z,77.09
2023-09-16T22:58:22.729Z,77.39
2023-09-16T23:00:25.482Z,77.50
2023-09-16T23:02:28.259Z,77.82
2023-09-16T23:04:31.177Z,78.04
2023-09-16T23:06:33.945Z,77.74
2023-09-16T23:08:36.625Z,78.52
2023-09-16T23:10:39.382Z,78.22
2023-09-16T23:12:42.122Z,78.13
2023-09-16T23:14:44.904Z,78.58
2023-09-16T23:16:47.760Z,79.09
2023-09-16T23:18:50.444Z,79.29
2023-09-16T23:20:59.796Z,80.09
2023-09-16T23:23:02.625Z,80.17
2023-09-16T23:25:06.676Z,80.35
2023-09-16T23:27:09.448Z,80.61
2023-09-16T23:29:12.164Z,80.98
2023-09-16T23:31:15.148Z,81.38
2023-09-16T23:33:19.440Z,81.39
2023-09-16T23:35:22.034Z,81.58
2023-09-16T23:37:24.736Z,81.70
2023-09-16T23:39:28.043Z,82.23
2023-09-16T23:41:30.709Z,82.15
2023-09-16T23:43:33.540Z,82.67
2023-09-16T23:45:39.202Z,82.71
2023-09-16T23:47:41.840Z,83.21
2023-09-16T23:49:45.148Z,83.68
2023-09-16T23:51:48.048Z,83.50
2023-09-16T23:53:50.985Z,83.88
2023-09-16T23:55:53.917Z,83.84
2023-09-16T23:57:56.554Z,83.92
2023-09-16T23:59:59.252Z,84.58
